createdAt,value
2019-04-01T00:02:10.116Z,27.70
2019-04-01T00:04:42.915Z,25.00
2019-04-01T00:07:16.155Z,41.73
2019-04-01T00:09:49.110Z,14.27
2019-04-01T00:12:22.500Z,14.07
2019-04-01T00:14:55.351Z,19.67
2019-04-01T00:17:28.385Z,18.33
2019-04-01T00:20:01.538Z,23.13
2019-04-01T00:22:34.472Z,23.47
2019-04-01T00:25:07.542Z,19.73
2019-04-01T00:27:40.596Z,22.03
2019-04-01T00:30:13.633Z,32.87
2019-04-01T00:32:46.748Z,19.83
2019-04-01T00:35:19.644Z,20.47
2019-04-01T00:37:52.589Z,25.57
2019-04-01T00:40:25.889Z,21.50
2019-04-01T00:43:02.891Z,20.70
2019-04-01T00:45:37.468Z,21.87
2019-04-01T00:48:10.469Z,26.83
2019-04-01T00:50:45.029Z,12.10
2019-04-01T00:53:19.024Z,25.30
2019-04-01T00:55:52.272Z,15.40
2019-04-01T00:58:25.288Z,18.57
2019-04-01T01:00:58.367Z,14.43
2019-04-01T01:03:32.385Z,17.60
2019-04-01T01:06:06.437Z,10.50
2019-04-01T01:08:39.165Z,14.90
2019-04-01T01:11:12.103Z,18.17
2019-04-01T01:13:46.215Z,20.80
2019-04-01T01:16:19.231Z,20.83
2019-04-01T01:18:52.035Z,17.77
2019-04-01T01:21:25.289Z,13.80
2019-04-01T01:23:58.508Z,10.83
2019-04-01T01:26:31.544Z,11.50
2019-04-01T01:29:05.071Z,14.30
2019-04-01T01:31:37.974Z,14.57
2019-04-01T01:34:11.189Z,8.97
2019-04-01T01:36:44.164Z,20.63
2019-04-01T01:39:17.322Z,11.83
2019-04-01T01:41:50.016Z,23.43
2019-04-01T01:44:23.104Z,26.40
2019-04-01T01:46:55.783Z,9.03
2019-04-01T01:49:29.006Z,11.17
2019-04-01T01:52:01.865Z,18.93
2019-04-01T01:54:35.464Z,15.83
2019-04-01T01:57:08.238Z,9.30
2019-04-01T01:59:41.147Z,16.93
2019-04-01T02:02:13.900Z,8.77
2019-04-01T02:04:46.924Z,19.07
2019-04-01T02:07:19.796Z,14.23
2019-04-01T02:09:53.075Z,20.37
2019-04-01T02:12:25.971Z,7.97
2019-04-01T02:14:59.143Z,6.50
2019-04-01T02:17:31.946Z,13.90
2019-04-01T02:20:05.221Z,19.90
2019-04-01T02:22:38.003Z,17.57
2019-04-01T02:25:11.107Z,25.20
2019-04-01T02:27:43.963Z,15.00
2019-04-01T02:30:17.100Z,9.67
2019-04-01T02:32:50.050Z,10.83
2019-04-01T02:35:22.975Z,16.70
2019-04-01T02:37:55.847Z,18.93
2019-04-01T02:40:28.825Z,17.00
2019-04-01T02:43:01.829Z,23.00
2019-04-01T02:45:35.114Z,28.07
2019-04-01T02:48:08.012Z,31.93
2019-04-01T02:50:42.627Z,24.80
2019-04-01T02:53:16.624Z,28.07
2019-04-01T02:55:50.230Z,18.10
2019-04-01T02:58:23.963Z,8.23
2019-04-01T03:00:57.049Z,5.40
2019-04-01T03:03:29.891Z,9.80
2019-04-01T03:06:03.092Z,12.23
2019-04-01T03:08:35.985Z,6.30
2019-04-01T03:11:10.847Z,7.53
2019-04-01T03:13:43.185Z,12.80
2019-04-01T03:16:16.299Z,14.53
2019-04-01T03:18:49.025Z,5.87
2019-04-01T03:21:22.123Z,16.23
2019-04-01T03:23:54.927Z,9.13
2019-04-01T03:26:28.142Z,7.53
2019-04-01T03:29:01.331Z,3.43
2019-04-01T03:31:34.576Z,6.17
2019-04-01T03:34:07.661Z,6.57
2019-04-01T03:36:41.461Z,7.00
2019-04-01T03:39:14.161Z,10.30
2019-04-01T03:41:46.915Z,5.17
2019-04-01T03:44:20.215Z,4.33
2019-04-01T03:46:53.044Z,7.57
2019-04-01T03:49:26.214Z,6.00
2019-04-01T03:51:59.205Z,3.57
2019-04-01T03:54:32.618Z,7.73
2019-04-01T03:57:06.341Z,10.50
2019-04-01T03:59:39.318Z,15.43
2019-04-01T04:02:12.045Z,6.93
2019-04-01T04:04:46.173Z,8.60
2019-04-01T04:07:18.966Z,13.40
2019-04-01T04:09:52.305Z,2.80
2019-04-01T04:12:25.148Z,2.37
2019-04-01T04:14:58.033Z,9.90
2019-04-01T04:17:31.042Z,2.73
2019-04-01T04:20:03.922Z,7.83
2019-04-01T04:22:37.009Z,4.60
2019-04-01T04:25:10.259Z,3.63
2019-04-01T04:27:43.223Z,8.23
2019-04-01T04:30:17.185Z,6.80
2019-04-01T04:32:50.364Z,7.47
2019-04-01T04:35:23.161Z,6.23
2019-04-01T04:37:56.259Z,4.20
2019-04-01T04:40:29.231Z,3.60
2019-04-01T04:43:02.430Z,1.93
2019-04-01T04:45:35.421Z,4.53
2019-04-01T04:48:08.743Z,3.30
2019-04-01T04:50:41.580Z,3.00
2019-04-01T04:53:14.860Z,1.20
2019-04-01T04:55:47.769Z,3.93
2019-04-01T04:58:21.746Z,2.87
2019-04-01T05:00:54.421Z,8.00
2019-04-01T05:03:27.736Z,6.43
2019-04-01T05:06:00.534Z,6.93
2019-04-01T05:08:33.909Z,4.83
2019-04-01T05:11:06.700Z,7.20
2019-04-01T05:13:39.771Z,7.40
2019-04-01T05:16:12.682Z,6.30
2019-04-01T05:18:46.232Z,9.20
2019-04-01T05:21:19.816Z,3.60
2019-04-01T05:23:53.853Z,3.03
2019-04-01T05:26:27.766Z,4.20
2019-04-01T05:29:03.968Z,6.00
2019-04-01T05:31:38.436Z,6.67
2019-04-01T05:34:13.392Z,4.70
2019-04-01T05:36:46.442Z,3.67
2019-04-01T05:39:19.279Z,7.77
2019-04-01T05:41:52.379Z,2.20
2019-04-01T05:44:25.436Z,2.47
2019-04-01T05:46:58.460Z,7.60
2019-04-01T05:49:31.396Z,11.10
2019-04-01T05:52:04.545Z,5.50
2019-04-01T05:54:37.524Z,3.70
2019-04-01T05:57:11.627Z,6.90
2019-04-01T05:59:44.883Z,8.30
2019-04-01T06:02:18.118Z,2.90
2019-04-01T06:04:50.917Z,4.67
2019-04-01T06:07:24.968Z,2.47
2019-04-01T06:09:57.897Z,2.07
2019-04-01T06:12:32.007Z,1.90
2019-04-01T06:15:04.879Z,3.43
2019-04-01T06:17:38.589Z,4.30
2019-04-01T06:20:11.475Z,1.90
2019-04-01T06:22:44.700Z,3.00
2019-04-01T06:25:17.666Z,2.20
2019-04-01T06:27:51.195Z,3.73
2019-04-01T06:30:24.035Z,1.80
2019-04-01T06:32:57.510Z,7.80
2019-04-01T06:35:30.561Z,2.83
2019-04-01T06:38:03.519Z,2.40
2019-04-01T06:40:36.483Z,2.10
2019-04-01T06:43:09.869Z,2.10
2019-04-01T06:45:42.879Z,6.03
2019-04-01T06:48:16.261Z,7.50
2019-04-01T06:50:49.253Z,4.20
2019-04-01T06:53:22.721Z,1.40
2019-04-01T06:55:55.742Z,3.63
2019-04-01T06:58:28.963Z,13.33
2019-04-01T07:01:05.010Z,14.17
2019-04-01T07:03:38.321Z,16.57
2019-04-01T07:06:11.192Z,6.13
2019-04-01T07:08:44.491Z,13.43
2019-04-01T07:11:17.559Z,1.50
2019-04-01T07:13:51.903Z,5.00
2019-04-01T07:16:24.683Z,4.43
2019-04-01T07:18:57.540Z,6.30
2019-04-01T07:21:30.550Z,4.90
2019-04-01T07:24:03.823Z,5.93
2019-04-01T07:26:36.777Z,3.40
2019-04-01T07:29:09.891Z,3.17
2019-04-01T07:31:43.452Z,7.10
2019-04-01T07:34:16.468Z,3.67
2019-04-01T07:36:49.161Z,2.03
2019-04-01T07:39:22.064Z,3.20
2019-04-01T07:41:55.761Z,2.70
2019-04-01T07:44:28.847Z,3.87
2019-04-01T07:47:02.943Z,2.63
2019-04-01T07:49:35.948Z,6.17
2019-04-01T07:52:08.831Z,2.43
2019-04-01T07:54:41.941Z,8.83
2019-04-01T07:57:15.272Z,5.83
2019-04-01T07:59:48.337Z,1.47
2019-04-01T08:02:21.734Z,4.03
2019-04-01T08:04:54.461Z,1.23
2019-04-01T08:07:28.775Z,4.10
2019-04-01T08:10:01.591Z,4.20
2019-04-01T08:12:34.775Z,1.00
2019-04-01T08:15:12.880Z,0.70
2019-04-01T08:17:45.815Z,1.70
2019-04-01T08:20:19.294Z,1.10
2019-04-01T08:22:52.590Z,1.60
2019-04-01T08:25:25.899Z,1.13
2019-04-01T08:28:00.292Z,4.50
2019-04-01T08:30:34.671Z,4.33
2019-04-01T08:33:07.501Z,2.70
2019-04-01T08:35:41.971Z,0.93
2019-04-01T08:38:14.861Z,4.17
2019-04-01T08:40:48.221Z,2.30
2019-04-01T08:43:21.163Z,1.27
2019-04-01T08:45:54.685Z,2.03
2019-04-01T08:48:27.753Z,1.63
2019-04-01T08:51:01.355Z,3.20
2019-04-01T08:53:34.242Z,2.10
2019-04-01T08:56:07.493Z,1.37
2019-04-01T08:58:40.802Z,2.10
2019-04-01T09:01:13.736Z,4.47
2019-04-01T09:03:47.077Z,4.47
2019-04-01T09:06:20.051Z,6.00
2019-04-01T09:08:55.163Z,2.13
2019-04-01T09:11:28.151Z,2.10
2019-04-01T09:14:01.172Z,3.70
2019-04-01T09:16:37.212Z,6.47
2019-04-01T09:19:08.659Z,3.37
2019-04-01T09:21:41.723Z,8.13
2019-04-01T09:24:15.977Z,7.60
2019-04-01T09:26:48.779Z,1.20
2019-04-01T09:29:21.957Z,2.40
2019-04-01T09:31:54.919Z,4.27
2019-04-01T09:34:27.956Z,4.53
2019-04-01T09:37:00.947Z,5.27
2019-04-01T09:39:33.909Z,2.20
2019-04-01T09:42:07.240Z,3.63
2019-04-01T09:44:40.300Z,1.30
2019-04-01T09:47:13.310Z,1.30
2019-04-01T09:49:46.460Z,2.60
2019-04-01T09:52:19.455Z,6.60
2019-04-01T09:54:52.238Z,4.77
2019-04-01T09:57:25.505Z,5.50
2019-04-01T09:59:58.289Z,2.87
2019-04-01T10:02:32.490Z,5.03
2019-04-01T10:05:05.429Z,4.50
2019-04-01T10:07:38.890Z,3.67
2019-04-01T10:10:12.290Z,5.20
2019-04-01T10:12:45.394Z,4.00
2019-04-01T10:15:18.464Z,3.80
2019-04-01T10:17:51.427Z,3.27
2019-04-01T10:20:24.547Z,7.77
2019-04-01T10:22:57.574Z,8.10
2019-04-01T10:25:30.577Z,8.20
2019-04-01T10:28:03.714Z,5.50
2019-04-01T10:30:36.559Z,7.83
2019-04-01T10:33:09.563Z,22.33
2019-04-01T10:35:42.540Z,5.00
2019-04-01T10:38:15.706Z,6.33
2019-04-01T10:40:48.728Z,8.10
2019-04-01T10:43:21.896Z,9.77
2019-04-01T10:45:54.912Z,9.47
2019-04-01T10:48:28.059Z,3.87
2019-04-01T10:51:01.072Z,10.57
2019-04-01T10:53:34.258Z,5.73
2019-04-01T10:56:07.256Z,5.37
2019-04-01T10:58:40.497Z,5.70
2019-04-01T11:01:13.505Z,5.20
2019-04-01T11:03:46.880Z,9.40
2019-04-01T11:06:19.593Z,7.40
2019-04-01T11:08:52.865Z,8.07
2019-04-01T11:11:27.144Z,10.20
2019-04-01T11:14:00.023Z,14.27
2019-04-01T11:16:33.188Z,7.73
2019-04-01T11:19:07.294Z,4.60
2019-04-01T11:21:40.429Z,7.13
2019-04-01T11:24:13.392Z,11.73
2019-04-01T11:26:46.919Z,11.40
2019-04-01T11:29:20.164Z,12.07
2019-04-01T11:31:53.571Z,5.87
2019-04-01T11:34:26.723Z,2.30
2019-04-01T11:37:00.004Z,11.87
2019-04-01T11:39:33.142Z,10.20
2019-04-01T11:42:06.021Z,6.70
2019-04-01T11:44:39.028Z,13.30
2019-04-01T11:47:11.789Z,11.50
2019-04-01T11:49:44.932Z,8.63
2019-04-01T11:52:18.284Z,5.00
2019-04-01T11:54:51.412Z,15.43
2019-04-01T11:57:24.259Z,8.90
2019-04-01T11:59:57.828Z,11.43
2019-04-01T12:02:31.008Z,9.83
2019-04-01T12:05:04.225Z,15.10
2019-04-01T12:07:37.662Z,6.53
2019-04-01T12:10:10.990Z,4.00
2019-04-01T12:12:44.005Z,7.50
2019-04-01T12:15:17.210Z,4.27
2019-04-01T12:17:50.204Z,10.10
2019-04-01T12:20:23.325Z,10.73
2019-04-01T12:22:56.365Z,11.23
2019-04-01T12:25:29.360Z,8.20
2019-04-01T12:28:03.330Z,2.13
2019-04-01T12:30:36.152Z,9.60
2019-04-01T12:33:09.825Z,7.10
2019-04-01T12:35:42.789Z,4.10
2019-04-01T12:38:16.476Z,6.83
2019-04-01T12:40:49.406Z,5.27
2019-04-01T12:43:23.706Z,11.50
2019-04-01T12:45:57.150Z,7.03
2019-04-01T12:48:31.558Z,6.30
2019-04-01T12:51:04.606Z,10.10
2019-04-01T12:53:37.720Z,14.63
2019-04-01T12:56:10.720Z,6.20
2019-04-01T12:58:43.782Z,11.50
2019-04-01T13:01:16.697Z,13.30
2019-04-01T13:03:49.877Z,11.20
2019-04-01T13:06:23.850Z,8.77
2019-04-01T13:08:57.002Z,8.83
2019-04-01T13:11:29.870Z,10.07
2019-04-01T13:14:03.124Z,8.27
2019-04-01T13:16:36.499Z,12.13
2019-04-01T13:19:09.440Z,12.37
2019-04-01T13:21:42.971Z,25.97
2019-04-01T13:24:15.826Z,5.17
2019-04-01T13:26:50.818Z,10.63
2019-04-01T13:29:24.067Z,4.43
2019-04-01T13:32:00.411Z,5.67
2019-04-01T13:34:31.659Z,12.33
2019-04-01T13:37:04.649Z,9.20
2019-04-01T13:39:38.225Z,10.73
2019-04-01T13:42:11.239Z,12.80
2019-04-01T13:44:44.432Z,5.30
2019-04-01T13:47:17.424Z,12.77
2019-04-01T13:49:50.699Z,10.10
2019-04-01T13:52:23.465Z,8.40
2019-04-01T13:54:56.601Z,7.83
2019-04-01T13:57:29.599Z,10.13
2019-04-01T14:00:02.748Z,12.37
2019-04-01T14:02:35.755Z,12.33
2019-04-01T14:05:09.904Z,14.03
2019-04-01T14:07:43.363Z,10.27
2019-04-01T14:10:16.741Z,17.10
2019-04-01T14:12:49.751Z,13.93
2019-04-01T14:15:22.920Z,16.33
2019-04-01T14:17:55.913Z,16.87
2019-04-01T14:20:30.050Z,18.13
2019-04-01T14:23:02.923Z,13.33
2019-04-01T14:25:36.098Z,17.30
2019-04-01T14:28:09.427Z,14.20
2019-04-01T14:30:43.020Z,20.67
2019-04-01T14:33:15.768Z,10.77
2019-04-01T14:35:49.208Z,12.37
2019-04-01T14:38:21.948Z,22.30
2019-04-01T14:40:58.028Z,16.37
2019-04-01T14:43:31.151Z,15.43
2019-04-01T14:46:05.105Z,12.20
2019-04-01T14:48:38.385Z,12.00
2019-04-01T14:51:11.600Z,23.90
2019-04-01T14:53:44.501Z,8.40
2019-04-01T14:56:17.697Z,13.20
2019-04-01T14:58:50.681Z,7.87
2019-04-01T15:01:23.861Z,14.53
2019-04-01T15:03:56.857Z,9.03
2019-04-01T15:06:31.687Z,7.83
2019-04-01T15:09:06.310Z,12.73
2019-04-01T15:11:39.355Z,10.50
2019-04-01T15:14:12.280Z,15.00
2019-04-01T15:16:45.474Z,18.23
2019-04-01T15:19:18.472Z,27.20
2019-04-01T15:21:52.038Z,8.27
2019-04-01T15:24:25.684Z,8.00
2019-04-01T15:26:58.904Z,5.43
2019-04-01T15:29:31.833Z,9.90
2019-04-01T15:32:05.022Z,7.40
2019-04-01T15:34:38.017Z,7.33
2019-04-01T15:37:11.305Z,11.00
2019-04-01T15:39:47.032Z,10.40
2019-04-01T15:42:18.494Z,13.83
2019-04-01T15:44:51.386Z,14.77
2019-04-01T15:47:24.591Z,6.97
2019-04-01T15:49:57.589Z,20.03
2019-04-01T15:52:30.755Z,11.53
2019-04-01T15:55:03.742Z,12.13
2019-04-01T15:57:37.172Z,14.10
2019-04-01T16:00:10.407Z,18.73
2019-04-01T16:02:43.390Z,14.20
2019-04-01T16:05:16.305Z,17.83
2019-04-01T16:07:49.828Z,13.60
2019-04-01T16:10:22.459Z,11.17
2019-04-01T16:12:55.617Z,19.73
2019-04-01T16:15:31.749Z,16.90
2019-04-01T16:18:02.820Z,25.10
2019-04-01T16:20:35.794Z,17.90
2019-04-01T16:23:08.645Z,21.10
2019-04-01T16:25:41.711Z,12.33
2019-04-01T16:28:14.618Z,22.13
2019-04-01T16:30:48.162Z,18.20
2019-04-01T16:33:21.414Z,12.20
2019-04-01T16:35:54.669Z,15.43
2019-04-01T16:38:27.591Z,13.63
2019-04-01T16:41:00.983Z,12.80
2019-04-01T16:43:34.487Z,12.30
2019-04-01T16:46:07.724Z,24.37
2019-04-01T16:48:40.551Z,6.70
2019-04-01T16:51:13.848Z,16.07
2019-04-01T16:53:46.944Z,14.40
2019-04-01T16:56:20.182Z,11.60
2019-04-01T16:58:52.990Z,10.80
2019-04-01T17:01:26.039Z,6.87
2019-04-01T17:03:58.907Z,12.50
2019-04-01T17:06:32.129Z,4.80
2019-04-01T17:09:07.899Z,13.57
2019-04-01T17:11:41.547Z,10.00
2019-04-01T17:14:14.539Z,10.23
2019-04-01T17:16:47.704Z,17.17
2019-04-01T17:19:20.714Z,11.70
2019-04-01T17:21:53.809Z,12.63
2019-04-01T17:24:27.931Z,10.77
2019-04-01T17:27:14.974Z,7.27
2019-04-01T17:29:48.848Z,9.40
2019-04-01T17:32:22.011Z,4.63
2019-04-01T17:34:55.007Z,9.77
2019-04-01T17:37:28.188Z,7.63
2019-04-01T17:40:01.208Z,10.23
2019-04-01T17:42:34.284Z,8.50
2019-04-01T17:45:27.338Z,6.17
2019-04-01T17:48:00.583Z,6.73
2019-04-01T17:50:34.815Z,9.40
2019-04-01T17:53:08.660Z,5.07
2019-04-01T17:55:45.194Z,9.07
2019-04-01T17:58:15.918Z,4.13
2019-04-01T18:00:56.059Z,2.33
2019-04-01T18:03:29.311Z,10.37
2019-04-01T18:06:02.350Z,9.87
2019-04-01T18:08:35.390Z,4.67
2019-04-01T18:11:08.721Z,12.27
2019-04-01T18:13:41.956Z,3.93
2019-04-01T18:16:15.141Z,6.50
2019-04-01T18:18:48.152Z,4.40
2019-04-01T18:21:21.324Z,9.47
2019-04-01T18:23:54.889Z,20.23
2019-04-01T18:26:28.173Z,2.83
2019-04-01T18:29:00.982Z,4.43
2019-04-01T18:31:34.081Z,1.80
2019-04-01T18:34:07.317Z,7.60
2019-04-01T18:36:40.270Z,3.97
2019-04-01T18:39:15.054Z,8.70
2019-04-01T18:41:47.662Z,5.97
2019-04-01T18:44:20.681Z,4.63
2019-04-01T18:46:53.841Z,14.57
2019-04-01T18:49:26.862Z,14.20
2019-04-01T18:52:00.023Z,6.90
2019-04-01T18:54:33.216Z,15.40
2019-04-01T18:57:07.252Z,12.40
2019-04-01T18:59:40.216Z,8.83
2019-04-01T19:02:13.582Z,13.13
2019-04-01T19:04:46.834Z,14.53
2019-04-01T19:07:21.895Z,14.07
2019-04-01T19:10:05.597Z,10.60
2019-04-01T19:12:28.459Z,13.83
2019-04-01T19:15:02.593Z,17.43
2019-04-01T19:17:35.700Z,21.60
2019-04-01T19:20:11.103Z,30.27
2019-04-01T19:22:44.128Z,16.37
2019-04-01T19:25:17.150Z,11.70
2019-04-01T19:27:50.076Z,18.33
2019-04-01T19:30:24.614Z,16.40
2019-04-01T19:32:57.448Z,23.47
2019-04-01T19:35:30.621Z,16.03
2019-04-01T19:38:06.879Z,9.40
2019-04-01T19:40:38.264Z,11.30
2019-04-01T19:43:11.253Z,16.87
2019-04-01T19:45:44.608Z,13.27
2019-04-01T19:48:17.646Z,12.70
2019-04-01T19:50:50.734Z,21.93
2019-04-01T19:53:24.723Z,13.63
2019-04-01T19:55:57.609Z,20.33
2019-04-01T19:58:30.793Z,10.27
2019-04-01T20:01:03.783Z,9.10
2019-04-01T20:03:36.966Z,13.03
2019-04-01T20:06:10.065Z,19.63
2019-04-01T20:08:43.346Z,14.00
2019-04-01T20:11:16.540Z,20.60
2019-04-01T20:13:49.715Z,7.03
2019-04-01T20:16:22.734Z,21.50
2019-04-01T20:18:55.925Z,17.33
2019-04-01T20:21:28.909Z,19.10
2019-04-01T20:24:02.223Z,12.83
2019-04-01T20:26:35.070Z,13.90
2019-04-01T20:29:08.492Z,10.43
2019-04-01T20:31:41.479Z,13.17
2019-04-01T20:34:19.974Z,8.73
2019-04-01T20:36:48.659Z,11.57
2019-04-01T20:39:21.723Z,20.37
2019-04-01T20:41:54.623Z,4.57
2019-04-01T20:44:27.823Z,10.93
2019-04-01T20:47:00.816Z,15.27
2019-04-01T20:49:34.807Z,15.77
2019-04-01T20:52:07.808Z,9.77
2019-04-01T20:54:41.064Z,4.83
2019-04-01T20:57:13.987Z,10.90
2019-04-01T20:59:47.780Z,4.33
2019-04-01T21:02:20.669Z,10.10
2019-04-01T21:04:53.641Z,9.07
2019-04-01T21:07:26.539Z,8.77
2019-04-01T21:09:59.807Z,7.20
2019-04-01T21:12:32.898Z,7.53
2019-04-01T21:15:06.109Z,4.23
2019-04-01T21:17:38.985Z,5.63
2019-04-01T21:20:13.157Z,5.93
2019-04-01T21:22:46.415Z,14.37
2019-04-01T21:25:19.450Z,7.23
2019-04-01T21:27:53.075Z,4.20
2019-04-01T21:30:26.690Z,5.20
2019-04-01T21:32:59.794Z,4.47
2019-04-01T21:35:33.097Z,6.57
2019-04-01T21:38:06.175Z,5.90
2019-04-01T21:40:39.404Z,2.30
2019-04-01T21:43:12.649Z,3.97
2019-04-01T21:45:45.657Z,7.40
2019-04-01T21:48:19.989Z,5.53
2019-04-01T21:50:53.400Z,4.30
2019-04-01T21:53:26.239Z,4.87
2019-04-01T21:55:59.440Z,2.30
2019-04-01T21:58:32.433Z,3.83
2019-04-01T22:01:05.619Z,9.70
2019-04-01T22:03:38.712Z,6.10
2019-04-01T22:06:12.391Z,3.27
2019-04-01T22:08:45.717Z,2.83
2019-04-01T22:11:18.858Z,9.47
2019-04-01T22:13:52.893Z,3.23
2019-04-01T22:16:26.616Z,5.37
2019-04-01T22:19:00.498Z,10.00
2019-04-01T22:21:34.724Z,3.43
2019-04-01T22:24:08.940Z,5.77
2019-04-01T22:26:42.107Z,5.23
2019-04-01T22:29:15.051Z,4.93
2019-04-01T22:31:48.856Z,2.13
2019-04-01T22:34:21.919Z,4.60
2019-04-01T22:36:54.971Z,4.07
2019-04-01T22:39:27.688Z,2.73
2019-04-01T22:42:01.359Z,4.73
2019-04-01T22:44:34.369Z,5.70
2019-04-01T22:47:07.562Z,6.20
2019-04-01T22:49:41.248Z,4.30
2019-04-01T22:52:14.552Z,3.80
2019-04-01T22:54:47.567Z,1.50
2019-04-01T22:57:20.754Z,1.47
2019-04-01T22:59:53.628Z,2.00
2019-04-01T23:02:26.909Z,3.43
2019-04-01T23:05:00.011Z,5.20
2019-04-01T23:07:33.100Z,4.87
2019-04-01T23:10:06.583Z,2.43
2019-04-01T23:12:40.297Z,3.03
2019-04-01T23:15:14.282Z,2.30
2019-04-01T23:17:48.563Z,10.00
2019-04-01T23:20:21.527Z,2.20
2019-04-01T23:22:55.193Z,1.70
2019-04-01T23:25:28.086Z,7.30
2019-04-01T23:28:01.168Z,3.90
2019-04-01T23:30:34.280Z,1.30
2019-04-01T23:33:07.271Z,3.03
2019-04-01T23:35:40.460Z,1.43
2019-04-01T23:38:13.613Z,6.67
2019-04-01T23:40:47.083Z,1.27
2019-04-01T23:43:19.924Z,3.27
2019-04-01T23:45:53.111Z,1.27
2019-04-01T23:48:26.003Z,2.83
2019-04-01T23:50:59.973Z,3.33
2019-04-01T23:53:32.795Z,8.53
2019-04-01T23:56:06.736Z,2.73
2019-04-01T23:58:39.476Z,2.33
